Brussel, Belgium

3:51 AM CEST op 01 september 2016 (GMT +0200)
Mulslaan | | Change Station

Hoogte 104 ft 50.91 °N, 4.51 °E | Updated 1 minute ago

Clear
Helder
61.3 °F
Voelt als 61.3 °F
N
0.6
Wind Variabel Wind van zuid
Gusts 1.9 mijl/u

Vandaag
Hoog -- | Laag -- °F
--% Kans op neerslag
Gisteren
Hoog -- | Laag -- °F
Precip. -- inches
Druk 30.18 inches
Zicht 6.2 mijlen
Wolken
Dauwpunt 56 °F
Vochtigheid 82%
Neerslag 0.00 inches
Dikte sneeuw Niet beschikbaar.
6:55 AM 8:26 PM
Afnemende halvemaan, 0% visible
METAR EBBE 010125Z AUTO 21005KT 9999 NCD 14/12 Q1022 BLU
Druk 30.18 inches
Zicht 6.2 mijlen
Wolken
Dauwpunt 56 °F
Vochtigheid 82%
Neerslag 0.00 inches
Dikte sneeuw Niet beschikbaar.
6:55 AM 8:26 PM
Afnemende halvemaan, 0% visible
METAR EBBE 010125Z AUTO 21005KT 9999 NCD 14/12 Q1022 BLU

10-Day Weather Forecast

×

Almanac

Astronomie

Sep. 01, 2016 Opkomst Ondergang
Werkelijke tijd
Burgerlijke schemering
Nautische schemering
Astronomische schemering
Maan
Golflengte van het zichtbare licht
Daglengte
Tomorrow will be .
, % of the Moon is Illuminated

Extremen vandaag

Country Highs Country Lows

Community

WunderPhotos

Upload Photos

1,936,266 foto’s ge-upload!

WunderBlog® & News

Nearby

Luchtkwaliteit

  Luchtkwaliteit LK-index Verontreinigende stof
Not available.

Dikte sneeuw

Station Depth Geometrische hoogte

Aardbevingen

Stad Distance Mag. Time & Date
Minimum magnitude displayed is 2.5.

Watertemperatuur langs de kust

Plaats Temperatuur

Stations

Nabije weerstations

Locatie station Temp. Gevoelstemperatuur Dauwpunt Vochtigheid Wind Precip. Hoogte Geactualiseerd Type